Lincoln, Ontario

7:07 AM EDT on September 01, 2015 (GMT -0400)
Cherry Ave | | Change Station
CLOSE
Current Station
Personal Weather Station
Location: Lincoln, ONTARIO
Elevation: 433 ft
Nearby Weather Stations

Elev 433 ft 43.16 °N, 79.41 °W | Updated 4 seconds ago

Overcast
Overcast
66.0 °F
Feels Like 66.0 °F
N
0.0
Wind Variable Wind from SSE
Gusts 0.0 mph

Today is forecast to be nearly the same temperature as yesterday.

Today
High -- | Low -- °F
--% Chance of Precip.
Yesterday
High -- | Low -- °F
Precip. -- in
6:41 AM 7:52 PM
Waning Gibbous, 89% visible
Pressure 30.07 in
Visibility 1.0 miles
Clouds Overcast 25000 ft
Dew Point 62 °F
Humidity 86%
Rainfall 0.00 in
Snow Depth Not available.
UV 0.0 out of 12
Pollen Not available.
Air Quality Not available.
Flu Activity Not available.
METAR CYSN 011100Z 15003KT 1SM BR OVC250 17/17 A3007 RMK FG2CI6 SLP181 DENSITY ALT 400FT
Pressure 30.07 in
Visibility 1.0 miles
Clouds Overcast 25000 ft
Dew Point 62 °F
Humidity 86%
Rainfall 0.00 in
Snow Depth Not available.
UV 0.0 out of 12
Pollen Not available.
Air Quality Not available.
Flu Activity Not available.
METAR CYSN 011100Z 15003KT 1SM BR OVC250 17/17 A3007 RMK FG2CI6 SLP181 DENSITY ALT 400FT

10-Day Weather Forecast

×

Almanac

Astronomy

Sep. 01, 2015 Rise Set
Actual Time
Civil Twilight
Nautical Twilight
Astronomical Twilight
Moon
Length of Visible Light
Length of Day
Tomorrow will be .
, % of the Moon is Illuminated

Today's Extremes

Country Highs Country Lows

Community

WunderPhotos

Upload Photos

1,851,501 photos uploaded!

WunderBlogs® & News

Nearby

Air Quality

  Air Quality AQ Index Pollutant
Not available.

Snow Depth

Station Depth Elevation

Earthquake Activity

City Distance Mag. Time & Date
Minimum magnitude displayed is 2.5.

Coastal Water Temperatures

Place Temperature

Stations

Nearby Weather Stations

Station Location Temp. Windchill Dew Point Humidity Wind Precip. Elev Updated Type